createdAt,value
2019-05-10T00:00:50.444Z,97.44
2019-05-10T00:01:50.380Z,97.44
2019-05-10T00:02:50.376Z,97.23
2019-05-10T00:03:50.350Z,97.03
2019-05-10T00:04:50.359Z,97.13
2019-05-10T00:05:50.343Z,96.92
2019-05-10T00:06:50.322Z,96.92
2019-05-10T00:07:50.309Z,96.92
2019-05-10T00:08:50.299Z,97.03
2019-05-10T00:09:50.298Z,97.03
2019-05-10T00:10:50.282Z,96.92
2019-05-10T00:11:50.269Z,97.03
2019-05-10T00:12:50.259Z,97.03
2019-05-10T00:13:50.238Z,97.03
2019-05-10T00:14:50.248Z,97.03
2019-05-10T00:15:50.220Z,97.13
2019-05-10T00:16:50.208Z,97.03
2019-05-10T00:17:50.198Z,97.13
2019-05-10T00:18:50.188Z,97.13
2019-05-10T00:19:50.467Z,97.13
2019-05-10T00:20:50.167Z,97.13
2019-05-10T00:21:50.148Z,97.33
2019-05-10T00:22:50.136Z,97.54
2019-05-10T00:23:50.130Z,97.58
2019-05-10T00:25:03.146Z,97.69
2019-05-10T00:25:51.418Z,97.89
2019-05-10T00:26:50.099Z,97.79
2019-05-10T00:27:50.086Z,97.89
2019-05-10T00:28:50.076Z,97.89
2019-05-10T00:29:50.066Z,97.74
2019-05-10T00:30:50.089Z,97.89
2019-05-10T00:31:50.045Z,97.99
2019-05-10T00:32:50.028Z,98.10
2019-05-10T00:33:50.017Z,98.20
2019-05-10T00:34:50.051Z,98.30
2019-05-10T00:35:50.016Z,98.20
2019-05-10T00:36:49.986Z,98.20
2019-05-10T00:37:49.975Z,98.30
2019-05-10T00:38:49.986Z,98.20
2019-05-10T00:39:49.955Z,98.10
2019-05-10T00:40:49.955Z,98.30
2019-05-10T00:41:49.935Z,98.41
2019-05-10T00:42:49.927Z,98.41
2019-05-10T00:43:49.921Z,98.61
2019-05-10T00:44:49.901Z,98.82
2019-05-10T00:45:49.906Z,98.82
2019-05-10T00:46:49.881Z,98.82
2019-05-10T00:47:49.864Z,98.82
2019-05-10T00:48:49.856Z,99.02
2019-05-10T00:49:49.844Z,99.02
2019-05-10T00:50:49.844Z,99.02
2019-05-10T00:51:49.823Z,99.17
2019-05-10T00:52:49.820Z,99.27
2019-05-10T00:53:49.808Z,99.27
2019-05-10T00:54:49.793Z,99.27
2019-05-10T00:55:49.793Z,99.27
2019-05-10T00:56:49.774Z,99.27
2019-05-10T00:57:49.763Z,99.27
2019-05-10T00:58:49.753Z,99.12
2019-05-10T00:59:49.743Z,99.12
2019-05-10T01:00:49.742Z,98.92
2019-05-10T01:01:49.739Z,98.92
2019-05-10T01:02:49.714Z,98.82
2019-05-10T01:03:49.707Z,98.82
2019-05-10T01:04:49.692Z,98.82
2019-05-10T01:05:49.692Z,98.82
2019-05-10T01:06:49.672Z,98.82
2019-05-10T01:07:49.652Z,98.51
2019-05-10T01:08:49.651Z,98.41
2019-05-10T01:09:49.632Z,98.41
2019-05-10T01:10:49.669Z,98.51
2019-05-10T01:11:49.611Z,98.51
2019-05-10T01:12:49.602Z,98.30
2019-05-10T01:13:49.592Z,98.41
2019-05-10T01:14:49.581Z,98.41
2019-05-10T01:15:49.590Z,98.30
2019-05-10T01:16:49.560Z,98.20
2019-05-10T01:17:49.554Z,97.99
2019-05-10T01:18:49.541Z,98.10
2019-05-10T01:19:49.531Z,97.99
2019-05-10T01:20:49.530Z,98.20
2019-05-10T01:21:49.510Z,98.20
2019-05-10T01:22:49.502Z,98.20
2019-05-10T01:23:49.490Z,98.30
2019-05-10T01:24:49.479Z,98.41
2019-05-10T01:25:49.492Z,98.51
2019-05-10T01:26:49.460Z,98.41
2019-05-10T01:27:49.452Z,98.51
2019-05-10T01:28:49.440Z,98.41
2019-05-10T01:29:49.419Z,98.41
2019-05-10T01:30:49.421Z,98.41
2019-05-10T01:31:49.419Z,98.51
2019-05-10T01:32:49.389Z,98.61
2019-05-10T01:33:49.388Z,98.76
2019-05-10T01:34:49.369Z,98.76
2019-05-10T01:35:49.359Z,98.66
2019-05-10T01:36:49.368Z,98.55
2019-05-10T01:37:49.340Z,98.45
2019-05-10T01:38:49.336Z,98.41
2019-05-10T01:39:49.318Z,98.41
2019-05-10T01:40:49.309Z,98.20
2019-05-10T01:41:49.308Z,98.41
2019-05-10T01:42:49.305Z,98.55
2019-05-10T01:43:49.278Z,98.55
2019-05-10T01:44:49.269Z,98.66
2019-05-10T01:45:49.257Z,98.66
2019-05-10T01:46:49.259Z,98.66
2019-05-10T01:47:49.237Z,98.55
2019-05-10T01:48:49.228Z,98.51
2019-05-10T01:49:49.217Z,98.51
2019-05-10T01:50:49.210Z,98.51
2019-05-10T01:51:49.208Z,98.30
2019-05-10T01:52:49.204Z,98.41
2019-05-10T01:53:49.175Z,98.41
2019-05-10T01:54:49.156Z,98.30
2019-05-10T01:55:52.557Z,98.30
2019-05-10T01:56:49.157Z,98.30
2019-05-10T01:57:49.126Z,98.20
2019-05-10T01:58:49.132Z,98.10
2019-05-10T01:59:49.106Z,98.20
2019-05-10T02:00:49.096Z,97.99
2019-05-10T02:01:49.097Z,98.35
2019-05-10T02:02:49.077Z,98.45
2019-05-10T02:03:49.066Z,98.25
2019-05-10T02:04:49.059Z,98.35
2019-05-10T02:05:49.045Z,98.14
2019-05-10T02:06:49.044Z,98.20
2019-05-10T02:07:49.029Z,98.10
2019-05-10T02:08:49.015Z,98.20
2019-05-10T02:09:49.005Z,98.30
2019-05-10T02:10:48.985Z,98.35
2019-05-10T02:11:48.995Z,98.14
2019-05-10T02:12:48.965Z,98.25
2019-05-10T02:13:48.955Z,98.25
2019-05-10T02:14:48.954Z,98.20
2019-05-10T02:15:48.972Z,98.30
2019-05-10T02:16:48.930Z,98.41
2019-05-10T02:17:48.933Z,98.20
2019-05-10T02:18:48.905Z,98.51
2019-05-10T02:19:48.893Z,98.51
2019-05-10T02:20:48.884Z,98.76
2019-05-10T02:21:48.874Z,98.66
2019-05-10T02:22:48.921Z,98.55
2019-05-10T02:23:48.853Z,98.66
2019-05-10T02:24:48.844Z,98.76
2019-05-10T02:25:48.833Z,98.66
2019-05-10T02:26:48.823Z,98.55
2019-05-10T02:27:48.823Z,98.66
2019-05-10T02:28:48.802Z,98.45
2019-05-10T02:29:48.791Z,98.41
2019-05-10T02:30:48.783Z,98.41
2019-05-10T02:31:48.772Z,98.41
2019-05-10T02:32:48.784Z,98.10
2019-05-10T02:33:48.751Z,98.10
2019-05-10T02:34:48.746Z,97.99
2019-05-10T02:35:48.738Z,97.89
2019-05-10T02:36:48.723Z,98.30
2019-05-10T02:37:48.733Z,98.76
2019-05-10T02:38:48.703Z,98.66
2019-05-10T02:39:48.692Z,98.76
2019-05-10T02:40:48.683Z,98.66
2019-05-10T02:41:48.671Z,98.76
2019-05-10T02:42:48.671Z,98.66
2019-05-10T02:43:48.653Z,98.55
2019-05-10T02:44:48.649Z,98.76
2019-05-10T02:45:48.630Z,98.76
2019-05-10T02:46:48.638Z,98.86
2019-05-10T02:47:48.620Z,98.86
2019-05-10T02:48:48.603Z,98.66
2019-05-10T02:49:48.591Z,98.55
2019-05-10T02:50:48.587Z,98.55
2019-05-10T02:51:48.572Z,98.66
2019-05-10T02:52:48.580Z,98.55
2019-05-10T02:53:48.551Z,98.45
2019-05-10T02:54:48.539Z,98.25
2019-05-10T02:55:48.529Z,98.14
2019-05-10T02:56:48.519Z,97.73
2019-05-10T02:57:48.519Z,97.73
2019-05-10T02:58:48.499Z,97.83
2019-05-10T02:59:48.491Z,97.69
2019-05-10T03:00:48.478Z,97.83
2019-05-10T03:01:48.469Z,97.79
2019-05-10T03:02:48.469Z,97.63
2019-05-10T03:03:48.448Z,97.58
2019-05-10T03:04:48.439Z,97.48
2019-05-10T03:05:49.060Z,97.48
2019-05-10T03:06:48.417Z,97.38
2019-05-10T03:07:48.439Z,97.38
2019-05-10T03:08:48.398Z,96.97
2019-05-10T03:09:48.393Z,97.28
2019-05-10T03:10:48.368Z,97.48
2019-05-10T03:11:48.374Z,97.38
2019-05-10T03:12:48.349Z,97.28
2019-05-10T03:13:48.360Z,97.32
2019-05-10T03:14:48.403Z,97.02
2019-05-10T03:15:48.328Z,96.09
2019-05-10T03:16:48.308Z,96.30
2019-05-10T03:17:48.297Z,96.81
2019-05-10T03:18:48.306Z,97.02
2019-05-10T03:19:48.279Z,97.22
2019-05-10T03:20:48.267Z,97.32
2019-05-10T03:21:48.257Z,97.32
2019-05-10T03:22:48.250Z,97.22
2019-05-10T03:23:48.259Z,97.53
2019-05-10T03:24:48.227Z,97.63
2019-05-10T03:25:48.218Z,97.53
2019-05-10T03:26:50.833Z,97.42
2019-05-10T03:27:48.207Z,97.32
2019-05-10T03:28:48.197Z,97.53
2019-05-10T03:29:48.177Z,97.63
2019-05-10T03:30:48.166Z,97.42
2019-05-10T03:31:48.156Z,97.63
2019-05-10T03:32:48.156Z,97.63
2019-05-10T03:33:55.694Z,97.63
2019-05-10T03:34:49.125Z,97.53
2019-05-10T03:35:48.121Z,97.63
2019-05-10T03:36:48.104Z,97.83
2019-05-10T03:37:48.095Z,97.73
2019-05-10T03:38:48.096Z,97.73
2019-05-10T03:39:48.075Z,98.04
2019-05-10T03:40:48.057Z,98.04
2019-05-10T03:41:48.046Z,98.04
2019-05-10T03:42:48.045Z,98.04
2019-05-10T03:43:48.047Z,98.04
2019-05-10T03:44:48.015Z,98.25
2019-05-10T03:45:48.005Z,98.14
2019-05-10T03:46:48.009Z,98.25
2019-05-10T03:47:47.983Z,98.35
2019-05-10T03:48:47.989Z,98.35
2019-05-10T03:49:47.964Z,98.55
2019-05-10T03:50:47.964Z,98.66
2019-05-10T03:51:47.953Z,98.55
2019-05-10T03:52:52.014Z,98.60
2019-05-10T03:53:47.934Z,98.55
2019-05-10T03:54:47.913Z,98.66
2019-05-10T03:55:48.013Z,98.76
2019-05-10T03:56:47.894Z,98.76
2019-05-10T03:57:47.890Z,98.66
2019-05-10T03:58:47.883Z,98.55
2019-05-10T03:59:47.863Z,98.45
2019-05-10T04:00:47.851Z,98.45
2019-05-10T04:01:47.841Z,98.45
2019-05-10T04:02:47.821Z,98.14
2019-05-10T04:03:47.851Z,98.14
2019-05-10T04:04:47.802Z,98.04
2019-05-10T04:05:47.791Z,98.04
2019-05-10T04:06:47.779Z,97.94
2019-05-10T04:07:47.772Z,97.94
2019-05-10T04:08:47.756Z,97.83
2019-05-10T04:09:47.763Z,97.73
2019-05-10T04:10:47.731Z,97.94
2019-05-10T04:11:47.721Z,97.73
2019-05-10T04:12:47.710Z,97.83
2019-05-10T04:13:47.701Z,97.83
2019-05-10T04:14:47.700Z,97.94
2019-05-10T04:15:47.691Z,97.94
2019-05-10T04:16:47.674Z,97.83
2019-05-10T04:17:50.215Z,97.83
2019-05-10T04:18:47.659Z,97.73
2019-05-10T04:19:47.659Z,97.94
2019-05-10T04:20:47.637Z,97.73
2019-05-10T04:21:47.634Z,97.42
2019-05-10T04:22:47.612Z,97.32
2019-05-10T04:23:47.625Z,97.22
2019-05-10T04:24:47.699Z,97.12
2019-05-10T04:25:47.578Z,96.40
2019-05-10T04:26:47.570Z,96.19
2019-05-10T04:27:47.559Z,95.68
2019-05-10T04:28:47.548Z,96.09
2019-05-10T04:29:47.550Z,96.09
2019-05-10T04:30:47.529Z,96.09
2019-05-10T04:31:47.520Z,96.19
2019-05-10T04:32:47.518Z,96.60
2019-05-10T04:33:47.498Z,96.70
2019-05-10T04:34:47.498Z,96.60
2019-05-10T04:35:47.479Z,96.60
2019-05-10T04:36:47.469Z,96.30
2019-05-10T04:37:47.459Z,96.19
2019-05-10T04:38:47.449Z,95.98
2019-05-10T04:39:47.449Z,96.25
2019-05-10T04:40:47.431Z,96.15
2019-05-10T04:41:47.417Z,96.25
2019-05-10T04:42:47.408Z,96.25
2019-05-10T04:43:47.408Z,96.35
2019-05-10T04:44:47.411Z,96.04
2019-05-10T04:45:47.387Z,95.94
2019-05-10T04:46:47.372Z,96.15
2019-05-10T04:47:47.357Z,96.45
2019-05-10T04:48:47.364Z,96.35
2019-05-10T04:49:47.356Z,96.56
2019-05-10T04:50:49.217Z,96.66
2019-05-10T04:51:47.334Z,96.25
2019-05-10T04:52:47.314Z,96.20
2019-05-10T04:53:47.308Z,96.31
2019-05-10T04:54:47.315Z,96.41
2019-05-10T04:55:47.286Z,96.51
2019-05-10T04:56:47.275Z,96.66
2019-05-10T04:57:51.040Z,96.41
2019-05-10T04:58:47.263Z,96.25
2019-05-10T04:59:47.236Z,96.35
2019-05-10T05:00:47.247Z,96.45
2019-05-10T05:01:47.224Z,96.35
2019-05-10T05:02:47.217Z,96.10
2019-05-10T05:03:47.194Z,95.90
2019-05-10T05:04:47.185Z,95.94
2019-05-10T05:05:47.194Z,96.25
2019-05-10T05:06:47.173Z,96.35
2019-05-10T05:07:47.162Z,96.25
2019-05-10T05:08:47.146Z,95.84
2019-05-10T05:09:47.133Z,95.94
2019-05-10T05:10:47.143Z,96.04
2019-05-10T05:11:47.113Z,96.35
2019-05-10T05:12:47.110Z,96.66
2019-05-10T05:13:47.103Z,96.56
2019-05-10T05:14:47.083Z,96.66
2019-05-10T05:15:47.092Z,96.35
2019-05-10T05:16:47.072Z,96.35
2019-05-10T05:17:47.052Z,96.45
2019-05-10T05:18:47.043Z,96.66
2019-05-10T05:19:47.040Z,96.56
2019-05-10T05:20:47.042Z,96.15
2019-05-10T05:21:47.013Z,96.25
2019-05-10T05:22:47.014Z,95.84
2019-05-10T05:23:46.992Z,95.94
2019-05-10T05:24:46.981Z,96.15
2019-05-10T05:25:46.991Z,96.35
2019-05-10T05:26:46.962Z,96.56
2019-05-10T05:27:46.951Z,96.66
2019-05-10T05:28:46.943Z,96.66
2019-05-10T05:29:46.932Z,96.15
2019-05-10T05:30:46.940Z,95.84
2019-05-10T05:31:46.921Z,94.81
2019-05-10T05:32:46.900Z,95.32
2019-05-10T05:33:46.891Z,95.74
2019-05-10T05:34:46.880Z,95.74
2019-05-10T05:35:46.881Z,95.84
2019-05-10T05:36:46.863Z,95.84
2019-05-10T05:37:46.850Z,95.23
2019-05-10T05:38:49.453Z,94.98
2019-05-10T05:39:46.831Z,95.49
2019-05-10T05:40:46.917Z,95.49
2019-05-10T05:41:49.561Z,95.39
2019-05-10T05:42:46.799Z,95.39
2019-05-10T05:43:48.209Z,95.18
2019-05-10T05:44:46.779Z,95.28
2019-05-10T05:45:46.779Z,95.49
2019-05-10T05:46:46.760Z,95.79
2019-05-10T05:47:46.747Z,95.49
2019-05-10T05:48:46.748Z,95.39
2019-05-10T05:49:46.726Z,95.07
2019-05-10T05:50:46.731Z,95.39
2019-05-10T05:51:46.708Z,95.28
2019-05-10T05:52:46.694Z,95.59
2019-05-10T05:53:46.742Z,95.90
2019-05-10T05:54:46.667Z,95.90
2019-05-10T05:55:46.681Z,95.79
2019-05-10T05:56:50.608Z,95.90
2019-05-10T05:57:47.638Z,95.90
2019-05-10T05:58:47.037Z,95.79
2019-05-10T05:59:49.103Z,95.69
2019-05-10T06:00:46.909Z,95.90
2019-05-10T06:01:46.597Z,95.79
2019-05-10T06:02:46.847Z,95.49
2019-05-10T06:03:46.595Z,95.39
2019-05-10T06:04:47.674Z,95.49
2019-05-10T06:05:46.558Z,96.10
2019-05-10T06:06:46.556Z,96.00
2019-05-10T06:07:46.531Z,95.79
2019-05-10T06:08:46.526Z,95.95
2019-05-10T06:09:46.514Z,95.75
2019-05-10T06:10:56.740Z,95.65
2019-05-10T06:11:47.496Z,95.44
2019-05-10T06:12:50.724Z,95.44
2019-05-10T06:13:47.467Z,95.75
2019-05-10T06:14:49.899Z,95.65
2019-05-10T06:15:46.435Z,95.65
2019-05-10T06:16:51.251Z,95.44
2019-05-10T06:17:56.030Z,95.09
2019-05-10T06:18:48.898Z,95.09
2019-05-10T06:19:46.405Z,95.20
2019-05-10T06:20:47.007Z,94.68
2019-05-10T06:21:46.385Z,94.78
2019-05-10T06:23:05.141Z,94.99
2019-05-10T06:23:47.345Z,95.20
2019-05-10T06:24:46.793Z,94.99
2019-05-10T06:25:47.334Z,94.89
2019-05-10T06:26:46.324Z,94.89
2019-05-10T06:27:46.304Z,94.68
2019-05-10T06:29:04.507Z,94.17
2019-05-10T06:29:47.286Z,94.17
2019-05-10T06:30:46.315Z,93.96
2019-05-10T06:31:46.274Z,94.07
2019-05-10T06:32:46.254Z,94.17
2019-05-10T06:33:46.861Z,94.37
2019-05-10T06:34:46.233Z,93.76
2019-05-10T06:35:46.223Z,94.27
2019-05-10T06:36:46.223Z,94.17
2019-05-10T06:37:46.206Z,94.07
2019-05-10T06:38:46.183Z,94.37
2019-05-10T06:39:46.180Z,93.92
2019-05-10T06:40:47.524Z,94.23
2019-05-10T06:41:49.894Z,93.51
2019-05-10T06:42:47.152Z,93.82
2019-05-10T06:43:51.423Z,92.38
2019-05-10T06:44:47.122Z,92.59
2019-05-10T06:45:46.572Z,92.59
2019-05-10T06:46:47.112Z,92.49
2019-05-10T06:47:47.684Z,92.90
2019-05-10T06:48:46.091Z,92.90
2019-05-10T06:49:50.792Z,93.10
2019-05-10T06:50:47.056Z,93.62
2019-05-10T06:51:49.096Z,94.23
2019-05-10T06:52:46.032Z,94.43
2019-05-10T06:53:52.231Z,93.82
2019-05-10T06:54:47.002Z,93.67
2019-05-10T06:55:46.010Z,92.85
2019-05-10T06:56:45.994Z,92.24
2019-05-10T06:57:49.877Z,91.73
2019-05-10T06:58:46.961Z,91.83
2019-05-10T06:59:45.949Z,92.50
2019-05-10T07:00:47.481Z,92.10
2019-05-10T07:01:51.457Z,91.27
2019-05-10T07:02:46.918Z,91.69
2019-05-10T07:03:45.900Z,91.58
2019-05-10T07:04:45.890Z,91.58
2019-05-10T07:05:45.880Z,91.69
2019-05-10T07:06:45.899Z,90.05
2019-05-10T07:07:45.860Z,89.84
2019-05-10T07:08:46.118Z,91.03
2019-05-10T07:10:04.182Z,89.90
2019-05-10T07:10:46.823Z,90.72
2019-05-10T07:11:45.831Z,91.13
2019-05-10T07:12:45.861Z,91.54
2019-05-10T07:13:47.249Z,90.41
2019-05-10T07:14:46.505Z,90.11
2019-05-10T07:15:45.768Z,90.11
2019-05-10T07:16:45.757Z,90.62
2019-05-10T07:17:47.316Z,90.72
2019-05-10T07:18:45.737Z,88.78
2019-05-10T07:19:53.876Z,89.59
2019-05-10T07:20:46.710Z,90.72
2019-05-10T07:21:50.887Z,89.65
2019-05-10T07:22:46.743Z,90.06
2019-05-10T07:23:47.585Z,89.41
2019-05-10T07:24:45.657Z,88.90
2019-05-10T07:25:46.794Z,88.65
2019-05-10T07:26:45.639Z,88.35
2019-05-10T07:27:45.640Z,88.10
2019-05-10T07:28:45.608Z,88.10
2019-05-10T07:29:46.194Z,87.35
2019-05-10T07:30:45.587Z,87.45
2019-05-10T07:31:45.580Z,86.33
2019-05-10T07:32:45.576Z,85.82
2019-05-10T07:33:45.556Z,85.10
2019-05-10T07:34:48.855Z,86.63
2019-05-10T07:35:46.527Z,87.14
2019-05-10T07:36:45.517Z,86.83
2019-05-10T07:37:47.607Z,87.14
2019-05-10T07:38:46.497Z,86.73
2019-05-10T07:39:45.492Z,86.33
2019-05-10T07:40:45.475Z,86.47
2019-05-10T07:41:45.498Z,87.29
2019-05-10T07:42:47.026Z,88.10
2019-05-10T07:43:48.106Z,86.98
2019-05-10T07:44:46.667Z,87.08
2019-05-10T07:45:45.414Z,87.70
2019-05-10T07:46:47.025Z,87.08
2019-05-10T07:47:46.396Z,86.06
2019-05-10T07:48:46.978Z,85.96
2019-05-10T07:49:46.366Z,86.26
2019-05-10T07:50:49.280Z,86.88
2019-05-10T07:51:46.345Z,86.16
2019-05-10T07:52:45.672Z,86.47
2019-05-10T07:53:45.319Z,86.77
2019-05-10T07:54:47.701Z,86.57
2019-05-10T07:55:45.295Z,87.38
2019-05-10T07:56:47.660Z,87.90
2019-05-10T07:57:45.305Z,87.55
2019-05-10T07:58:45.255Z,87.65
2019-05-10T07:59:50.682Z,87.96
2019-05-10T08:00:46.778Z,87.85
2019-05-10T08:01:48.841Z,86.83
2019-05-10T08:02:52.721Z,85.41
2019-05-10T08:03:51.869Z,86.08
2019-05-10T08:04:46.185Z,87.00
2019-05-10T08:05:46.267Z,86.08
2019-05-10T08:06:48.760Z,86.18
2019-05-10T08:07:46.145Z,86.18
2019-05-10T08:08:45.154Z,85.88
2019-05-10T08:09:46.268Z,84.82
2019-05-10T08:10:45.113Z,84.31
2019-05-10T08:11:45.095Z,85.13
2019-05-10T08:12:45.782Z,85.13
2019-05-10T08:13:45.084Z,84.61
2019-05-10T08:14:51.894Z,84.41
2019-05-10T08:15:46.043Z,84.31
2019-05-10T08:16:49.868Z,84.72
2019-05-10T08:17:46.023Z,84.92
2019-05-10T08:18:45.023Z,84.37
2019-05-10T08:19:45.002Z,84.78
2019-05-10T08:20:53.611Z,84.88
2019-05-10T08:21:48.908Z,85.19
2019-05-10T08:22:46.308Z,85.49
2019-05-10T08:23:44.964Z,85.49
2019-05-10T08:24:54.487Z,83.65
2019-05-10T08:25:47.149Z,84.51
2019-05-10T08:26:44.912Z,84.31
2019-05-10T08:27:50.661Z,82.23
2019-05-10T08:28:45.903Z,82.54
2019-05-10T08:29:44.893Z,83.56
2019-05-10T08:30:51.902Z,84.64
2019-05-10T08:31:52.633Z,82.40
2019-05-10T08:32:45.832Z,83.01
2019-05-10T08:33:56.353Z,82.50
2019-05-10T08:34:52.132Z,82.09
2019-05-10T08:35:46.675Z,81.68
2019-05-10T08:36:47.633Z,83.01
2019-05-10T08:37:44.781Z,83.01
2019-05-10T08:38:50.684Z,81.48
2019-05-10T08:39:49.503Z,82.80
2019-05-10T08:40:45.734Z,82.97
2019-05-10T08:41:45.812Z,82.26
2019-05-10T08:42:49.034Z,81.34
2019-05-10T08:43:45.711Z,81.44
2019-05-10T08:44:44.691Z,80.49
2019-05-10T08:45:49.288Z,80.90
2019-05-10T08:46:45.661Z,81.87
2019-05-10T08:47:44.650Z,78.72
2019-05-10T08:48:50.435Z,78.01
2019-05-10T08:49:57.663Z,77.84
2019-05-10T08:50:53.081Z,77.53
2019-05-10T08:51:49.267Z,79.77
2019-05-10T08:52:44.590Z,78.86
2019-05-10T08:53:47.093Z,80.08
2019-05-10T08:54:45.562Z,75.91
2019-05-10T08:55:44.551Z,77.13
2019-05-10T18:55:29.769Z,91.67
2019-05-10T18:56:31.281Z,91.27
2019-05-10T18:57:29.730Z,90.86
2019-05-10T18:58:31.578Z,90.75
2019-05-10T18:59:29.709Z,90.86
2019-05-10T19:00:29.699Z,90.96
2019-05-10T19:01:32.884Z,90.96
2019-05-10T19:02:30.678Z,90.90
2019-05-10T19:03:33.591Z,91.00
2019-05-10T19:04:29.649Z,91.31
2019-05-10T19:05:31.800Z,90.70
2019-05-10T19:06:31.342Z,91.11
2019-05-10T19:07:29.608Z,91.20
2019-05-10T19:08:29.617Z,91.61
2019-05-10T19:09:29.589Z,92.17
2019-05-10T19:10:29.578Z,92.27
2019-05-10T19:11:33.102Z,92.37
2019-05-10T19:12:30.883Z,92.27
2019-05-10T19:13:33.126Z,92.07
2019-05-10T19:14:30.022Z,92.17
2019-05-10T19:15:29.519Z,92.27
2019-05-10T19:16:31.996Z,92.27
2019-05-10T19:17:29.497Z,92.72
2019-05-10T19:18:29.488Z,92.72
2019-05-10T19:19:35.096Z,92.52
2019-05-10T19:20:30.451Z,92.01
2019-05-10T19:21:30.634Z,92.01
2019-05-10T19:22:29.427Z,92.01
2019-05-10T19:23:29.428Z,91.91
2019-05-10T19:24:30.457Z,92.01
2019-05-10T19:25:29.397Z,91.91
2019-05-10T19:26:31.449Z,91.91
2019-05-10T19:27:29.367Z,92.01
2019-05-10T19:28:29.376Z,91.80
2019-05-10T19:29:29.346Z,91.80
2019-05-10T19:30:29.336Z,91.95
2019-05-10T19:31:31.576Z,92.05
2019-05-10T19:32:30.308Z,91.95
2019-05-10T19:33:35.602Z,91.85
2019-05-10T19:34:30.286Z,91.95
2019-05-10T19:35:34.862Z,91.85
2019-05-10T19:36:30.266Z,91.85
2019-05-10T19:37:34.141Z,91.95
2019-05-10T19:38:30.255Z,92.05
2019-05-10T19:39:29.227Z,92.05
2019-05-10T19:40:29.215Z,91.95
2019-05-10T19:41:29.205Z,91.85
2019-05-10T19:42:31.594Z,91.44
2019-05-10T19:43:29.206Z,91.48
2019-05-10T19:44:29.174Z,91.89
2019-05-10T19:45:31.139Z,91.99
2019-05-10T19:46:30.153Z,92.19
2019-05-10T19:47:30.132Z,92.30
2019-05-10T19:48:35.149Z,92.30
2019-05-10T19:49:30.123Z,92.10
2019-05-10T19:50:31.328Z,92.10
2019-05-10T19:51:29.098Z,91.99
2019-05-10T19:52:29.073Z,91.89
2019-05-10T19:53:29.072Z,91.78
2019-05-10T19:54:29.070Z,91.78
2019-05-10T19:55:29.043Z,91.89
2019-05-10T19:56:30.233Z,91.89
2019-05-10T19:57:30.014Z,91.89
2019-05-10T19:58:32.253Z,91.69
2019-05-10T19:59:29.003Z,91.78
2019-05-10T20:00:29.004Z,91.78
2019-05-10T20:01:28.963Z,91.99
2019-05-10T20:02:28.954Z,91.99
2019-05-10T20:03:28.943Z,92.30
2019-05-10T20:04:28.943Z,92.30
2019-05-10T20:05:28.930Z,92.10
2019-05-10T20:06:28.913Z,91.99
2019-05-10T20:07:43.317Z,92.40
2019-05-10T20:08:29.886Z,92.40
2019-05-10T20:09:28.891Z,92.40
2019-05-10T20:10:28.863Z,92.40
2019-05-10T20:11:28.856Z,92.40
2019-05-10T20:12:28.842Z,92.40
2019-05-10T20:13:28.831Z,92.60
2019-05-10T20:14:28.831Z,92.60
2019-05-10T20:15:28.802Z,92.71
2019-05-10T20:16:28.793Z,92.60
2019-05-10T20:17:28.888Z,92.91
2019-05-10T20:18:28.771Z,93.12
2019-05-10T20:19:28.773Z,93.12
2019-05-10T20:20:28.751Z,93.01
2019-05-10T20:21:28.741Z,93.22
2019-05-10T20:22:28.721Z,93.26
2019-05-10T20:23:28.711Z,93.22
2019-05-10T20:24:28.713Z,93.01
2019-05-10T20:25:28.691Z,92.81
2019-05-10T20:26:28.671Z,92.81
2019-05-10T20:27:28.660Z,92.71
2019-05-10T20:28:28.650Z,92.81
2019-05-10T20:29:28.651Z,92.91
2019-05-10T20:30:28.630Z,92.91
2019-05-10T20:31:30.622Z,92.71
2019-05-10T20:32:28.620Z,92.91
2019-05-10T20:33:28.594Z,92.60
2019-05-10T20:34:28.590Z,92.60
2019-05-10T20:35:28.570Z,92.81
2019-05-10T20:36:28.570Z,92.91
2019-05-10T20:37:28.549Z,92.71
2019-05-10T20:38:28.539Z,92.50
2019-05-10T20:39:28.539Z,92.60
2019-05-10T20:40:28.518Z,92.71
2019-05-10T20:41:28.502Z,92.71
2019-05-10T20:42:28.489Z,92.71
2019-05-10T20:43:28.478Z,93.01
2019-05-10T20:44:28.479Z,93.22
2019-05-10T20:45:28.458Z,93.01
2019-05-10T20:46:28.458Z,93.12
2019-05-10T20:47:28.438Z,93.22
2019-05-10T20:48:28.428Z,93.12
2019-05-10T20:49:28.433Z,93.32
2019-05-10T20:50:28.399Z,93.32
2019-05-10T20:51:28.388Z,93.22
2019-05-10T20:52:28.379Z,93.12
2019-05-10T20:53:28.371Z,93.12
2019-05-10T20:54:28.377Z,93.22
2019-05-10T20:55:28.348Z,93.22
2019-05-10T20:56:28.328Z,93.01
2019-05-10T20:57:28.318Z,93.22
2019-05-10T20:58:28.310Z,93.12
2019-05-10T20:59:28.327Z,92.71
2019-05-10T21:00:28.287Z,92.60
2019-05-10T21:01:28.277Z,92.71
2019-05-10T21:02:28.361Z,92.66
2019-05-10T21:03:28.256Z,92.66
2019-05-10T21:04:28.237Z,92.66
2019-05-10T21:05:28.237Z,92.66
2019-05-10T21:06:28.216Z,92.56
2019-05-10T21:07:28.221Z,92.46
2019-05-10T21:08:28.198Z,92.56
2019-05-10T21:09:28.186Z,92.77
2019-05-10T21:10:28.187Z,93.22
2019-05-10T21:11:28.156Z,93.22
2019-05-10T21:12:28.148Z,93.73
2019-05-10T21:13:28.135Z,93.93
2019-05-10T21:14:28.126Z,94.04
2019-05-10T21:15:28.126Z,94.18
2019-05-10T21:16:28.100Z,93.98
2019-05-10T21:17:28.086Z,94.14
2019-05-10T21:18:28.075Z,93.93
2019-05-10T21:19:28.073Z,93.93
2019-05-10T21:20:28.066Z,94.04
2019-05-10T21:21:28.047Z,93.84
2019-05-10T21:22:28.037Z,93.73
2019-05-10T21:23:28.024Z,93.73
2019-05-10T21:24:28.013Z,93.63
2019-05-10T21:25:28.005Z,93.93
2019-05-10T21:26:27.987Z,93.73
2019-05-10T21:27:27.974Z,94.45
2019-05-10T21:28:27.965Z,94.29
2019-05-10T21:29:27.955Z,94.59
2019-05-10T21:30:27.954Z,94.59
2019-05-10T21:31:27.942Z,94.59
2019-05-10T21:32:27.924Z,95.10
2019-05-10T21:33:27.905Z,95.10
2019-05-10T21:34:27.894Z,95.31
2019-05-10T21:35:27.895Z,95.21
2019-05-10T21:36:27.902Z,95.41
2019-05-10T21:37:27.863Z,95.31
2019-05-10T21:38:33.024Z,95.62
2019-05-10T21:39:28.866Z,96.38
2019-05-10T21:40:27.834Z,96.17
2019-05-10T21:41:27.814Z,96.07
2019-05-10T21:42:27.804Z,96.07
2019-05-10T21:43:27.821Z,96.38
2019-05-10T21:44:27.774Z,96.28
2019-05-10T21:45:27.809Z,96.17
2019-05-10T21:46:27.780Z,96.28
2019-05-10T21:47:27.742Z,96.28
2019-05-10T21:48:27.760Z,96.48
2019-05-10T21:49:27.750Z,96.28
2019-05-10T21:50:27.755Z,96.28
2019-05-10T21:51:27.694Z,96.28
2019-05-10T21:52:27.709Z,96.38
2019-05-10T21:53:27.673Z,96.13
2019-05-10T21:54:27.689Z,95.92
2019-05-10T21:55:27.662Z,96.13
2019-05-10T21:56:27.643Z,95.82
2019-05-10T21:57:27.624Z,95.72
2019-05-10T21:58:27.639Z,95.72
2019-05-10T21:59:27.630Z,96.23
2019-05-10T22:00:27.602Z,95.92
2019-05-10T22:01:27.583Z,95.92
2019-05-10T22:02:27.600Z,95.92
2019-05-10T22:03:27.588Z,95.62
2019-05-10T22:04:27.578Z,95.31
2019-05-10T22:05:27.576Z,95.41
2019-05-10T22:06:27.548Z,95.41
2019-05-10T22:07:27.540Z,95.31
2019-05-10T22:08:27.542Z,95.10
2019-05-10T22:09:27.518Z,95.41
2019-05-10T22:10:27.535Z,95.41
2019-05-10T22:11:27.498Z,95.21
2019-05-10T22:12:27.477Z,94.80
2019-05-10T22:13:27.475Z,94.75
2019-05-10T22:14:27.458Z,94.65
2019-05-10T22:15:27.448Z,94.65
2019-05-10T22:16:27.447Z,94.96
2019-05-10T22:17:27.426Z,94.96
2019-05-10T22:18:27.418Z,94.65
2019-05-10T22:19:27.406Z,94.75
2019-05-10T22:20:27.396Z,94.65
2019-05-10T22:21:27.394Z,94.65
2019-05-10T22:22:27.369Z,94.55
2019-05-10T22:23:27.357Z,94.55
2019-05-10T22:24:27.348Z,94.34
2019-05-10T22:25:27.335Z,94.65
2019-05-10T22:26:27.337Z,95.00
2019-05-10T22:27:27.316Z,95.41
2019-05-10T22:28:27.296Z,96.13
2019-05-10T22:29:27.287Z,96.38
2019-05-10T22:30:27.275Z,96.48
2019-05-10T22:31:27.276Z,96.79
2019-05-10T22:32:27.256Z,97.09
2019-05-10T22:33:27.245Z,97.30
2019-05-10T22:34:27.236Z,97.30
2019-05-10T22:35:27.226Z,97.20
2019-05-10T22:36:27.225Z,97.09
2019-05-10T22:37:27.195Z,96.89
2019-05-10T22:38:27.185Z,96.69
2019-05-10T22:39:27.176Z,96.58
2019-05-10T22:40:27.164Z,96.38
2019-05-10T22:41:27.164Z,96.48
2019-05-10T22:42:27.145Z,96.33
2019-05-10T22:43:27.136Z,96.13
2019-05-10T22:44:27.117Z,96.13
2019-05-10T22:45:27.104Z,96.03
2019-05-10T22:46:27.105Z,96.03
2019-05-10T22:47:27.085Z,95.92
2019-05-10T22:48:27.074Z,95.92
2019-05-10T22:49:27.065Z,95.51
2019-05-10T22:50:27.044Z,95.51
2019-05-10T22:51:27.065Z,95.41